Time;durP1;ratioP1;P1;durP2;ratioP2;P2;SDS_P1;SDS_P2;PMS_P1;PMS_P2;Temp;Humidity;BMP_temperature;BMP_pressure;BME280_temperature;BME280_humidity;BME280_pressure;Samples;Min_cycle;Max_cycle;Signal;HPM_P1;HPM_P2
2021/08/30 00:01:16;;;;;;;1999.90;999.90;;;;;;;14.44;100.00;95257.31;5012288;28;20245;-75
2021/08/30 00:03:43;;;;;;;1999.90;999.90;;;;;;;14.44;100.00;95265.16;5012640;28;20289;-75
2021/08/30 00:06:10;;;;;;;1999.90;999.90;;;;;;;14.37;100.00;95268.28;5012321;28;20202;-75
2021/08/30 00:08:38;;;;;;;1999.90;999.90;;;;;;;14.33;100.00;95266.59;5011967;28;20209;-75
2021/08/30 00:11:05;;;;;;;1999.90;999.90;;;;;;;14.33;100.00;95269.22;5011961;28;20711;-74
2021/08/30 00:13:34;;;;;;;1999.90;999.90;;;;;;;14.18;100.00;95265.34;5012300;28;20199;-75
2021/08/30 00:16:01;;;;;;;1999.90;999.90;;;;;;;14.15;100.00;95271.22;5012189;28;20238;-76
2021/08/30 00:18:28;;;;;;;1999.90;999.90;;;;;;;14.20;100.00;95277.00;5012469;28;20209;-75
2021/08/30 00:20:55;;;;;;;1999.90;999.90;;;;;;;14.23;100.00;95278.22;5012131;28;20202;-76
2021/08/30 00:23:22;;;;;;;1999.90;999.90;;;;;;;14.26;100.00;95282.81;5012255;28;20279;-75
2021/08/30 00:25:49;;;;;;;1999.90;999.90;;;;;;;14.22;100.00;95277.47;5012019;28;20694;-76
2021/08/30 00:28:17;;;;;;;1999.90;999.90;;;;;;;14.19;100.00;95280.72;5011805;28;20206;-76
2021/08/30 00:30:45;;;;;;;1999.90;999.90;;;;;;;14.09;100.00;95278.50;5011979;28;20202;-76
2021/08/30 00:33:12;;;;;;;1999.90;999.90;;;;;;;14.11;100.00;95280.78;5011602;28;20248;-76
2021/08/30 00:35:40;;;;;;;1999.90;999.90;;;;;;;14.02;100.00;95287.94;5011912;28;20205;-76
2021/08/30 00:38:08;;;;;;;1999.90;999.90;;;;;;;14.02;100.00;95282.69;5011934;28;20202;-76
2021/08/30 00:40:35;;;;;;;1999.90;999.90;;;;;;;13.91;100.00;95286.78;5011875;28;20637;-74
2021/08/30 00:43:03;;;;;;;1999.90;999.90;;;;;;;13.97;100.00;95286.28;5011768;28;20204;-74
2021/08/30 00:45:31;;;;;;;1999.90;999.90;;;;;;;14.02;100.00;95290.53;5011615;28;20593;-75
2021/08/30 00:48:01;;;;;;;1999.90;999.90;;;;;;;14.03;100.00;95294.69;5011398;28;20249;-76
2021/08/30 00:50:29;;;;;;;1999.90;999.90;;;;;;;14.03;100.00;95289.47;5011590;28;20199;-76
2021/08/30 00:52:58;;;;;;;1999.90;999.90;;;;;;;14.14;100.00;95296.59;5011433;28;20280;-77
2021/08/30 00:55:25;;;;;;;1999.90;999.90;;;;;;;13.90;100.00;95293.09;5011411;28;20209;-77
2021/08/30 00:57:53;;;;;;;1999.90;999.90;;;;;;;13.86;100.00;95300.03;5011114;28;20280;-76
2021/08/30 01:00:20;;;;;;;1999.90;999.90;;;;;;;13.97;100.00;95301.19;5011172;28;20294;-77
2021/08/30 01:02:47;;;;;;;1999.90;999.90;;;;;;;13.92;100.00;95298.75;5011465;28;20227;-77
2021/08/30 01:05:17;;;;;;;1999.90;999.90;;;;;;;13.79;100.00;95295.31;5011116;28;20257;-76
2021/08/30 01:07:55;;;;;;;1999.90;999.90;;;;;;;13.88;100.00;95303.09;5011387;28;20202;-75
2021/08/30 01:10:30;;;;;;;1999.90;999.90;;;;;;;13.91;100.00;95300.59;5010756;28;20230;-75
2021/08/30 01:13:01;;;;;;;1999.90;999.90;;;;;;;13.95;100.00;95301.50;5011238;28;20590;-76
2021/08/30 01:15:32;;;;;;;1999.90;999.90;;;;;;;13.79;100.00;95300.56;5010850;28;20194;-77
2021/08/30 01:18:03;;;;;;;1999.90;999.90;;;;;;;13.77;100.00;95303.47;5011259;28;20217;-76
2021/08/30 01:20:49;;;;;;;1999.90;999.90;;;;;;;13.81;100.00;95303.59;5011434;28;20647;-76
2021/08/30 01:23:18;;;;;;;1999.90;999.90;;;;;;;13.75;100.00;95303.00;5010997;28;20570;-76
2021/08/30 01:25:46;;;;;;;1999.90;999.90;;;;;;;13.63;100.00;95302.94;5011132;28;20626;-76
2021/08/30 01:28:14;;;;;;;1999.90;999.90;;;;;;;13.57;100.00;95306.81;5010857;28;20211;-76
2021/08/30 01:30:44;;;;;;;1999.90;999.90;;;;;;;13.66;100.00;95310.13;5011036;28;20211;-77
2021/08/30 01:33:13;;;;;;;1999.90;999.90;;;;;;;13.63;100.00;95308.19;5010947;28;20628;-76
2021/08/30 01:35:41;;;;;;;1999.90;999.90;;;;;;;13.58;100.00;95310.97;5010341;28;20237;-77
2021/08/30 01:38:09;;;;;;;1999.90;999.90;;;;;;;13.59;100.00;95309.13;5010408;28;20240;-75
2021/08/30 01:40:38;;;;;;;1999.90;999.90;;;;;;;13.56;100.00;95313.13;5010402;28;20238;-75
2021/08/30 01:43:06;;;;;;;1999.90;999.90;;;;;;;13.60;100.00;95308.78;5010188;28;20257;-75
2021/08/30 01:45:36;;;;;;;1999.90;999.90;;;;;;;13.60;100.00;95314.00;5010571;28;20255;-77
2021/08/30 01:48:05;;;;;;;1999.90;999.90;;;;;;;13.60;100.00;95316.63;5010846;28;20676;-75
2021/08/30 01:50:37;;;;;;;1999.90;999.90;;;;;;;13.50;100.00;95314.38;5010778;28;20237;-77
2021/08/30 01:53:07;;;;;;;1999.90;999.90;;;;;;;13.44;100.00;95325.34;5010550;28;20973;-76
2021/08/30 01:55:38;;;;;;;1999.90;999.90;;;;;;;13.43;100.00;95323.78;5010396;28;20206;-76
2021/08/30 02:00:52;;;;;;;1999.90;999.90;;;;;;;13.51;100.00;95322.97;5009470;28;20198;-76
2021/08/30 02:03:21;;;;;;;1999.90;999.90;;;;;;;13.44;100.00;95323.50;5015831;28;20217;-75
2021/08/30 02:05:51;;;;;;;1999.90;999.90;;;;;;;13.45;100.00;95322.38;5016872;28;20206;-76
2021/08/30 02:08:22;;;;;;;1999.90;999.90;;;;;;;13.42;100.00;95327.47;5009666;28;20198;-75
2021/08/30 02:10:50;;;;;;;1999.90;999.90;;;;;;;13.38;100.00;95326.59;5009719;28;20234;-76
2021/08/30 02:13:18;;;;;;;1999.90;999.90;;;;;;;13.44;100.00;95327.94;5010371;28;20236;-77
2021/08/30 02:15:47;;;;;;;1999.90;999.90;;;;;;;13.39;100.00;95328.88;5010204;28;20252;-76
2021/08/30 02:18:20;;;;;;;1999.90;999.90;;;;;;;13.43;100.00;95334.22;5010497;28;20195;-77
2021/08/30 02:20:56;;;;;;;1999.90;999.90;;;;;;;13.33;100.00;95335.34;5010740;28;20245;-77
2021/08/30 02:23:30;;;;;;;1999.90;999.90;;;;;;;13.29;100.00;95335.22;5010646;28;20665;-75
2021/08/30 02:25:59;;;;;;;1999.90;999.90;;;;;;;13.22;100.00;95339.38;5010555;28;20191;-75
2021/08/30 02:28:27;;;;;;;1999.90;999.90;;;;;;;13.29;100.00;95339.69;5010219;28;20214;-74
2021/08/30 02:30:55;;;;;;;1999.90;999.90;;;;;;;13.23;100.00;95340.91;5010462;28;20194;-77
2021/08/30 02:33:24;;;;;;;1999.90;999.90;;;;;;;13.21;100.00;95335.25;5010547;28;20226;-76
2021/08/30 02:36:00;;;;;;;1999.90;999.90;;;;;;;13.20;100.00;95346.78;5009859;28;20205;-76
2021/08/30 02:38:27;;;;;;;1999.90;999.90;;;;;;;13.18;100.00;95347.09;5009815;28;20197;-76
2021/08/30 02:40:55;;;;;;;1999.90;999.90;;;;;;;13.19;100.00;95345.25;5010026;28;20662;-76
2021/08/30 02:43:22;;;;;;;1999.90;999.90;;;;;;;13.14;100.00;95346.19;5010060;28;20749;-76
2021/08/30 02:45:49;;;;;;;1999.90;999.90;;;;;;;13.13;100.00;95351.69;5010243;28;20228;-76
2021/08/30 02:48:18;;;;;;;1999.90;999.90;;;;;;;13.10;100.00;95349.69;5010095;28;20236;-76
2021/08/30 02:50:46;;;;;;;1999.90;999.90;;;;;;;13.20;100.00;95350.13;5012085;28;20204;-76
2021/08/30 02:53:15;;;;;;;1999.90;999.90;;;;;;;13.27;100.00;95352.25;5013740;28;20222;-74
2021/08/30 02:55:42;;;;;;;1999.90;999.90;;;;;;;13.30;100.00;95351.63;5013719;28;20210;-75
2021/08/30 02:58:10;;;;;;;1999.90;999.90;;;;;;;13.30;100.00;95356.84;5013809;28;20203;-76
2021/08/30 03:00:37;;;;;;;1999.90;999.90;;;;;;;13.28;100.00;95364.25;5013750;28;20276;-76
2021/08/30 03:03:05;;;;;;;1999.90;999.90;;;;;;;13.30;100.00;95365.44;5013401;28;20777;-76
2021/08/30 03:05:33;;;;;;;1999.90;999.90;;;;;;;13.27;100.00;95362.69;5013352;28;20276;-77
2021/08/30 03:08:00;;;;;;;1999.90;999.90;;;;;;;13.31;100.00;95358.38;5013572;28;20265;-76
2021/08/30 03:10:30;;;;;;;1999.90;999.90;;;;;;;13.30;100.00;95362.81;5012966;28;20678;-77
2021/08/30 03:13:01;;;;;;;1999.90;999.90;;;;;;;13.27;100.00;95363.47;5013346;28;20741;-75
2021/08/30 03:15:28;;;;;;;1999.90;999.90;;;;;;;13.11;100.00;95369.47;5013206;28;20643;-76
2021/08/30 03:17:57;;;;;;;1999.90;999.90;;;;;;;13.15;100.00;95360.00;5013042;28;20202;-76
2021/08/30 03:20:26;;;;;;;1999.90;999.90;;;;;;;13.15;100.00;95362.59;5012889;28;20198;-75
2021/08/30 03:22:54;;;;;;;1999.90;999.90;;;;;;;13.10;100.00;95362.75;5012980;28;20203;-76
2021/08/30 03:25:23;;;;;;;1999.90;999.90;;;;;;;13.03;100.00;95372.88;5013281;28;20658;-75
2021/08/30 03:27:53;;;;;;;1999.90;999.90;;;;;;;12.99;100.00;95369.38;5012650;28;20209;-76
2021/08/30 03:30:20;;;;;;;1999.90;999.90;;;;;;;12.98;100.00;95370.44;5012951;28;20198;-74
2021/08/30 03:32:48;;;;;;;1999.90;999.90;;;;;;;12.94;100.00;95370.31;5012908;28;20230;-76
2021/08/30 03:35:16;;;;;;;1999.90;999.90;;;;;;;12.92;100.00;95370.59;5012972;28;20217;-75
2021/08/30 03:37:44;;;;;;;1999.90;999.90;;;;;;;12.92;100.00;95369.84;5012961;28;20260;-77
2021/08/30 03:40:14;;;;;;;1999.90;999.90;;;;;;;12.94;100.00;95371.06;5012879;28;20203;-74
2021/08/30 03:42:43;;;;;;;1999.90;999.90;;;;;;;12.91;100.00;95371.66;5013056;28;20202;-75
2021/08/30 03:45:13;;;;;;;1999.90;999.90;;;;;;;12.95;100.00;95377.78;5013520;28;20195;-74
2021/08/30 03:47:41;;;;;;;1999.90;999.90;;;;;;;12.88;100.00;95377.53;5012467;28;20175;-76
2021/08/30 03:50:10;;;;;;;1999.90;999.90;;;;;;;12.87;100.00;95381.19;5012852;28;20202;-75
2021/08/30 03:52:40;;;;;;;1999.90;999.90;;;;;;;12.79;100.00;95379.38;5011692;28;20296;-74
2021/08/30 03:55:10;;;;;;;1999.90;999.90;;;;;;;12.79;100.00;95389.81;5010551;28;20206;-75
2021/08/30 03:57:38;;;;;;;1999.90;999.90;;;;;;;12.86;100.00;95378.88;5012092;28;20202;-70
2021/08/30 04:00:07;;;;;;;1999.90;999.90;;;;;;;12.82;100.00;95388.41;5012262;28;20214;-71
2021/08/30 04:02:38;;;;;;;1999.90;999.90;;;;;;;12.74;100.00;95389.19;5011648;28;20217;-71
2021/08/30 04:05:06;;;;;;;1999.90;999.90;;;;;;;12.82;100.00;95389.19;5012264;28;20226;-74
2021/08/30 04:07:35;;;;;;;1999.90;999.90;;;;;;;12.84;100.00;95389.66;5008199;28;20675;-74
2021/08/30 04:10:02;;;;;;;1999.90;999.90;;;;;;;12.86;100.00;95395.31;4996765;28;20268;-74
2021/08/30 04:12:29;;;;;;;1999.90;999.90;;;;;;;12.89;100.00;95399.16;5010055;28;20226;-74
2021/08/30 04:14:57;;;;;;;1999.90;999.90;;;;;;;12.97;100.00;95400.19;5010772;28;20234;-74
2021/08/30 04:17:24;;;;;;;1999.90;999.90;;;;;;;13.10;100.00;95394.06;5011179;28;20205;-74
2021/08/30 04:19:53;;;;;;;1999.90;999.90;;;;;;;13.31;100.00;95402.75;5010557;28;20207;-74
2021/08/30 04:22:20;;;;;;;1999.90;999.90;;;;;;;13.48;100.00;95396.72;5009967;28;20665;-73
2021/08/30 04:24:47;;;;;;;1999.90;999.90;;;;;;;13.60;100.00;95397.56;5010768;28;20206;-73
2021/08/30 04:27:14;;;;;;;1999.90;999.90;;;;;;;13.95;100.00;95397.38;5011712;28;20673;-74
2021/08/30 04:29:42;;;;;;;1999.90;999.90;;;;;;;14.42;100.00;95406.66;5011706;28;20209;-73
2021/08/30 04:32:10;;;;;;;1999.90;999.90;;;;;;;14.85;100.00;95411.50;5012095;28;20300;-73
2021/08/30 04:34:38;;;;;;;1999.90;999.90;;;;;;;15.17;98.24;95415.22;5011767;28;20242;-73
2021/08/30 04:37:06;;;;;;;1999.90;999.90;;;;;;;15.52;96.16;95420.88;5011466;28;20284;-73
2021/08/30 04:39:34;;;;;;;1999.90;999.90;;;;;;;15.56;95.31;95421.75;5012015;28;20198;-72
2021/08/30 04:42:03;;;;;;;1999.90;999.90;;;;;;;15.72;93.80;95427.88;5011958;28;20199;-74
2021/08/30 04:44:30;;;;;;;1999.90;999.90;;;;;;;15.65;94.83;95424.25;5011562;28;20237;-74
2021/08/30 04:46:57;;;;;;;1999.90;999.90;;;;;;;15.83;94.84;95430.84;5011769;28;20198;-73
2021/08/30 04:49:24;;;;;;;1999.90;999.90;;;;;;;15.70;94.77;95427.44;5011368;28;20206;-73
2021/08/30 04:51:52;;;;;;;1999.90;999.90;;;;;;;15.72;95.38;95424.50;5011406;28;20203;-74
2021/08/30 04:54:21;;;;;;;1999.90;999.90;;;;;;;15.49;95.44;95424.13;5011071;28;20230;-73
2021/08/30 04:56:48;;;;;;;1999.90;999.90;;;;;;;15.33;96.75;95426.63;5011309;28;20195;-72
2021/08/30 04:59:15;;;;;;;1999.90;999.90;;;;;;;15.33;95.36;95424.00;5011123;28;20195;-72
2021/08/30 05:01:43;;;;;;;1999.90;999.90;;;;;;;15.24;96.92;95425.19;5010874;28;20198;-72
2021/08/30 05:04:10;;;;;;;1999.90;999.90;;;;;;;15.35;97.07;95421.81;5010828;28;20198;-73
2021/08/30 05:06:37;;;;;;;1999.90;999.90;;;;;;;15.61;96.10;95429.41;5010962;28;20202;-72
2021/08/30 05:09:04;;;;;;;1999.90;999.90;;;;;;;15.42;95.35;95431.75;5010744;28;20285;-72
2021/08/30 05:11:33;;;;;;;1999.90;999.90;;;;;;;15.30;97.15;95436.94;5011050;28;20206;-72
2021/08/30 05:14:00;;;;;;;1999.90;999.90;;;;;;;15.25;95.72;95435.31;5009837;28;20706;-73
2021/08/30 05:16:27;;;;;;;1999.90;999.90;;;;;;;15.19;96.57;95434.00;5011277;28;20689;-74
2021/08/30 05:18:54;;;;;;;1999.90;999.90;;;;;;;15.19;96.41;95435.84;5010616;28;20531;-73
2021/08/30 05:21:22;;;;;;;1999.90;999.90;;;;;;;15.00;97.29;95433.69;5011027;28;20230;-72
2021/08/30 05:23:49;;;;;;;1999.90;999.90;;;;;;;14.92;97.72;95429.31;5010640;28;20195;-73
2021/08/30 05:26:16;;;;;;;1999.90;999.90;;;;;;;15.03;97.66;95436.47;5010854;28;20233;-73
2021/08/30 05:28:44;;;;;;;1999.90;999.90;;;;;;;14.92;98.23;95435.31;5010693;28;20210;-72
2021/08/30 05:31:11;;;;;;;1999.90;999.90;;;;;;;14.95;98.77;95436.50;5010732;28;20690;-72
2021/08/30 05:33:39;;;;;;;1999.90;999.90;;;;;;;15.02;98.50;95444.63;5010564;28;20227;-72
2021/08/30 05:36:06;;;;;;;1999.90;999.90;;;;;;;15.05;98.76;95447.34;5010554;28;20194;-72
2021/08/30 05:38:33;;;;;;;1999.90;999.90;;;;;;;15.12;99.27;95438.22;5010353;28;20633;-72
2021/08/30 05:41:00;;;;;;;1999.90;999.90;;;;;;;15.36;98.47;95439.03;5010910;28;20198;-73
2021/08/30 05:43:28;;;;;;;1999.90;999.90;;;;;;;15.54;98.08;95434.44;5010939;28;20248;-73
2021/08/30 05:45:56;;;;;;;1999.90;999.90;;;;;;;15.53;97.52;95434.75;5010788;28;20198;-72
2021/08/30 05:48:23;;;;;;;1999.90;999.90;;;;;;;15.53;96.29;95440.00;5010521;28;20194;-73
2021/08/30 05:50:50;;;;;;;1999.90;999.90;;;;;;;15.58;95.44;95439.78;5010852;28;20206;-73
2021/08/30 05:53:19;;;;;;;1999.90;999.90;;;;;;;15.61;96.39;95439.13;5010426;28;20655;-74
2021/08/30 05:55:46;;;;;;;1999.90;999.90;;;;;;;15.86;96.82;95446.66;5010400;28;20194;-74
2021/08/30 05:58:13;;;;;;;1999.90;999.90;;;;;;;16.04;94.52;95447.19;5010504;28;20195;-74
2021/08/30 06:00:40;;;;;;;1999.90;999.90;;;;;;;16.25;93.76;95447.84;5010563;28;20198;-73
2021/08/30 06:03:09;;;;;;;1999.90;999.90;;;;;;;16.32;90.96;95447.31;5010635;28;20201;-73
2021/08/30 06:05:36;;;;;;;1999.90;999.90;;;;;;;16.52;90.89;95443.00;5010143;28;20256;-71
2021/08/30 06:08:03;;;;;;;1999.90;999.90;;;;;;;16.72;91.57;95448.13;5010294;28;20206;-73
2021/08/30 06:10:30;;;;;;;1999.90;999.90;;;;;;;16.98;87.83;95446.94;5010215;28;20284;-72
2021/08/30 06:12:57;;;;;;;1999.90;999.90;;;;;;;17.26;85.32;95449.53;5010086;28;20223;-73
2021/08/30 06:15:24;;;;;;;1999.90;999.90;;;;;;;17.27;86.60;95448.44;5010324;28;20633;-74
2021/08/30 06:17:51;;;;;;;1999.90;999.90;;;;;;;17.33;86.49;95444.47;5010384;28;20260;-74
2021/08/30 06:20:20;;;;;;;1999.90;999.90;;;;;;;17.29;84.65;95451.47;5010108;28;20725;-74
2021/08/30 06:22:47;;;;;;;1999.90;999.90;;;;;;;17.44;84.94;95448.88;5010062;28;20205;-73
2021/08/30 06:25:14;;;;;;;1999.90;999.90;;;;;;;17.60;82.82;95443.66;5011923;28;20199;-74
2021/08/30 06:27:41;;;;;;;1999.90;999.90;;;;;;;17.52;81.87;95450.59;5014429;28;20195;-73
2021/08/30 06:30:09;;;;;;;1999.90;999.90;;;;;;;17.69;83.18;95446.88;5014091;28;20198;-73
2021/08/30 06:32:36;;;;;;;1999.90;999.90;;;;;;;17.90;82.73;95449.25;5013816;28;20210;-73
2021/08/30 06:35:04;;;;;;;1999.90;999.90;;;;;;;17.98;81.91;95449.06;5013704;28;20198;-73
2021/08/30 06:37:32;;;;;;;1999.90;999.90;;;;;;;18.05;81.44;95453.75;5014218;28;20206;-72
2021/08/30 06:40:00;;;;;;;1999.90;999.90;;;;;;;17.98;81.10;95446.44;5013780;28;20202;-73
2021/08/30 06:42:27;;;;;;;1999.90;999.90;;;;;;;18.09;82.58;95451.94;5013715;28;20202;-73
2021/08/30 06:44:54;;;;;;;1999.90;999.90;;;;;;;18.26;81.09;95448.97;5014043;28;20722;-73
2021/08/30 06:47:21;;;;;;;1999.90;999.90;;;;;;;18.28;79.73;95456.53;5013758;28;20749;-73
2021/08/30 06:49:48;;;;;;;1999.90;999.90;;;;;;;18.47;79.42;95452.06;5010653;28;20293;-74
2021/08/30 06:52:16;;;;;;;1999.90;999.90;;;;;;;18.48;80.74;95458.06;5014094;28;20202;-73
2021/08/30 06:54:44;;;;;;;1999.90;999.90;;;;;;;18.59;79.93;95464.34;5013867;28;20300;-74
2021/08/30 06:57:11;;;;;;;1999.90;999.90;;;;;;;18.77;79.10;95456.84;5013363;28;20202;-73
2021/08/30 06:59:38;;;;;;;1999.90;999.90;;;;;;;18.62;77.05;95457.66;5013465;28;20203;-74
2021/08/30 07:02:06;;;;;;;1999.90;999.90;;;;;;;18.87;78.38;95453.66;5013751;28;20573;-74
2021/08/30 07:04:33;;;;;;;1999.90;999.90;;;;;;;19.15;77.83;95454.19;5013317;28;20191;-74
2021/08/30 07:07:00;;;;;;;1999.90;999.90;;;;;;;19.43;77.63;95448.66;5013850;28;20199;-74
2021/08/30 07:09:27;;;;;;;1999.90;999.90;;;;;;;19.61;77.46;95446.34;5012759;28;20292;-74
2021/08/30 07:11:55;;;;;;;1999.90;999.90;;;;;;;19.77;75.48;95453.00;5013197;28;20206;-74
2021/08/30 07:14:22;;;;;;;1999.90;999.90;;;;;;;19.76;72.12;95451.50;5013289;28;20943;-75
2021/08/30 07:16:50;;;;;;;1999.90;999.90;;;;;;;19.31;72.37;95452.22;5013562;28;20202;-75
2021/08/30 07:19:17;;;;;;;1999.90;999.90;;;;;;;19.24;72.27;95453.97;5013490;28;20638;-75
2021/08/30 07:21:44;;;;;;;1999.90;999.90;;;;;;;19.51;72.55;95452.97;5013392;28;20202;-74
2021/08/30 07:24:11;;;;;;;1999.90;999.90;;;;;;;19.56;72.70;95452.69;5013508;28;20198;-75
2021/08/30 07:26:38;;;;;;;1999.90;999.90;;;;;;;19.61;71.56;95452.41;5013175;28;20280;-75
2021/08/30 07:29:06;;;;;;;1999.90;999.90;;;;;;;19.70;71.72;95452.91;5013459;28;20617;-74
2021/08/30 07:31:33;;;;;;;1999.90;999.90;;;;;;;19.79;72.13;95450.03;5012978;28;20669;-74
2021/08/30 07:34:00;;;;;;;1999.90;999.90;;;;;;;19.81;70.86;95460.25;5012551;28;20229;-74
2021/08/30 07:36:28;;;;;;;1999.90;999.90;;;;;;;19.67;72.79;95458.13;5011825;28;20202;-75
2021/08/30 07:38:55;;;;;;;1999.90;999.90;;;;;;;19.69;72.64;95456.66;5012859;28;20577;-74
2021/08/30 07:41:23;;;;;;;1999.90;999.90;;;;;;;19.81;73.79;95450.47;5012778;28;20198;-73
2021/08/30 07:43:50;;;;;;;1999.90;999.90;;;;;;;20.01;72.73;95451.91;5012595;28;20649;-73
2021/08/30 07:46:20;;;;;;;1999.90;999.90;;;;;;;20.37;73.47;95447.94;5012432;28;20713;-73
2021/08/30 07:48:47;;;;;;;1999.90;999.90;;;;;;;20.36;70.78;95462.25;5012612;28;20639;-73
2021/08/30 07:51:14;;;;;;;1999.90;999.90;;;;;;;20.35;72.73;95455.44;5012803;28;20206;-73
2021/08/30 07:53:43;;;;;;;1999.90;999.90;;;;;;;20.27;69.96;95456.44;5012204;28;20236;-73
2021/08/30 07:56:10;;;;;;;1999.90;999.90;;;;;;;20.11;70.59;95461.09;5012523;28;20194;-74
2021/08/30 07:58:37;;;;;;;1999.90;999.90;;;;;;;20.20;72.21;95464.25;5012376;28;20203;-73
2021/08/30 08:01:05;;;;;;;1999.90;999.90;;;;;;;20.13;72.55;95464.13;5012758;28;20203;-74
2021/08/30 08:03:33;;;;;;;1999.90;999.90;;;;;;;20.22;72.94;95467.28;5012310;28;20203;-73
2021/08/30 08:06:00;;;;;;;1999.90;999.90;;;;;;;20.05;71.92;95468.53;5012784;28;20198;-74
2021/08/30 08:08:27;;;;;;;1999.90;999.90;;;;;;;20.26;73.24;95459.41;5011931;28;20240;-74
2021/08/30 08:10:54;;;;;;;1999.90;999.90;;;;;;;20.43;72.20;95464.97;5012019;28;20258;-74
2021/08/30 08:13:23;;;;;;;1999.90;999.90;;;;;;;20.45;69.96;95475.94;5011795;28;20280;-74
2021/08/30 08:15:51;;;;;;;1999.90;999.90;;;;;;;20.31;70.21;95469.69;5011974;28;20202;-74
2021/08/30 08:18:18;;;;;;;1999.90;999.90;;;;;;;20.28;71.44;95470.38;5011888;28;20681;-73
2021/08/30 08:20:47;;;;;;;1999.90;999.90;;;;;;;20.23;71.69;95468.78;5012200;28;20213;-74
2021/08/30 08:23:14;;;;;;;1999.90;999.90;;;;;;;20.41;72.92;95475.13;5011920;28;20206;-74
2021/08/30 08:25:41;;;;;;;1999.90;999.90;;;;;;;20.49;70.32;95471.47;5012393;28;20198;-74
2021/08/30 08:28:08;;;;;;;1999.90;999.90;;;;;;;20.33;71.45;95478.00;5012090;28;20269;-73
2021/08/30 08:30:36;;;;;;;1999.90;999.90;;;;;;;20.78;71.99;95466.53;5012098;28;20198;-72
2021/08/30 08:33:04;;;;;;;1999.90;999.90;;;;;;;20.51;70.95;95476.41;5011463;28;20309;-74
2021/08/30 08:35:31;;;;;;;1999.90;999.90;;;;;;;20.55;70.45;95480.59;5012194;28;20203;-74
2021/08/30 08:38:00;;;;;;;1999.90;999.90;;;;;;;20.20;70.31;95469.53;5011952;28;20237;-74
2021/08/30 08:40:27;;;;;;;1999.90;999.90;;;;;;;20.17;71.65;95470.22;5011762;28;20202;-73
2021/08/30 08:42:54;;;;;;;1999.90;999.90;;;;;;;20.60;72.17;95461.81;5011428;28;20630;-74
2021/08/30 08:45:22;;;;;;;1999.90;999.90;;;;;;;20.58;69.39;95460.63;5011258;28;20198;-73
2021/08/30 08:47:49;;;;;;;1999.90;999.90;;;;;;;20.55;68.98;95470.03;5011256;28;20226;-75
2021/08/30 08:50:20;;;;;;;1999.90;999.90;;;;;;;20.49;69.77;95468.06;5011653;28;20199;-73
2021/08/30 08:52:48;;;;;;;1999.90;999.90;;;;;;;20.53;69.53;95456.44;5011407;28;20186;-74
2021/08/30 08:55:17;;;;;;;1999.90;999.90;;;;;;;20.26;70.90;95460.19;5011093;28;20230;-73
2021/08/30 08:57:45;;;;;;;1999.90;999.90;;;;;;;20.63;72.09;95457.69;5011303;28;20202;-74
2021/08/30 09:00:14;;;;;;;1999.90;999.90;;;;;;;20.88;67.67;95455.34;5011414;28;20589;-73
2021/08/30 09:02:42;;;;;;;1999.90;999.90;;;;;;;21.05;67.78;95457.44;5011130;28;20202;-74
2021/08/30 09:05:21;;;;;;;1999.90;999.90;;;;;;;21.14;68.00;95457.94;5011658;28;20191;-74
2021/08/30 09:07:48;;;;;;;1999.90;999.90;;;;;;;20.95;66.56;95452.81;5011333;28;20186;-74
2021/08/30 09:10:21;;;;;;;1999.90;999.90;;;;;;;20.86;66.18;95458.38;5010652;28;20292;-74
2021/08/30 09:12:48;;;;;;;1999.90;999.90;;;;;;;20.84;67.72;95451.91;5011146;28;20183;-74
2021/08/30 09:15:19;;;;;;;1999.90;999.90;;;;;;;21.08;69.88;95456.72;5011087;28;20222;-73
2021/08/30 09:17:50;;;;;;;1999.90;999.90;;;;;;;21.41;66.98;95459.38;5011226;28;20293;-73
2021/08/30 09:20:19;;;;;;;1999.90;999.90;;;;;;;21.49;68.22;95462.84;5010939;28;20568;-75
2021/08/30 09:22:46;;;;;;;1999.90;999.90;;;;;;;21.10;67.25;95459.78;5010719;28;20206;-75
2021/08/30 09:25:14;;;;;;;1999.90;999.90;;;;;;;21.20;67.76;95451.22;5010713;28;20321;-75
2021/08/30 09:27:47;;;;;;;1999.90;999.90;;;;;;;21.20;66.80;95464.44;5011166;28;20302;-74
2021/08/30 09:30:16;;;;;;;1999.90;999.90;;;;;;;21.46;66.28;95456.41;5010679;28;20187;-72
2021/08/30 09:32:48;;;;;;;1999.90;999.90;;;;;;;21.39;64.89;95460.84;5010720;28;20210;-74
2021/08/30 09:35:16;;;;;;;1999.90;999.90;;;;;;;21.37;67.77;95458.56;5010659;28;20598;-74
2021/08/30 09:37:44;;;;;;;1999.90;999.90;;;;;;;21.56;64.46;95457.63;5010687;28;20198;-74
2021/08/30 09:40:13;;;;;;;1999.90;999.90;;;;;;;21.33;66.87;95449.84;5010393;28;20205;-73
2021/08/30 09:42:48;;;;;;;1999.90;999.90;;;;;;;21.44;67.11;95450.72;5010413;28;20742;-73
2021/08/30 09:45:17;;;;;;;1999.90;999.90;;;;;;;21.65;64.07;95455.44;5010062;28;20191;-74
2021/08/30 09:47:52;;;;;;;1999.90;999.90;;;;;;;21.97;63.08;95454.97;5010720;28;20568;-74
2021/08/30 09:50:19;;;;;;;1999.90;999.90;;;;;;;21.95;63.99;95451.94;5010818;28;20202;-74
2021/08/30 09:52:46;;;;;;;1999.90;999.90;;;;;;;21.97;66.08;95447.03;5010691;28;20285;-74
2021/08/30 09:55:14;;;;;;;1999.90;999.90;;;;;;;22.02;63.49;95463.31;5010047;28;20696;-73
2021/08/30 09:57:49;;;;;;;1999.90;999.90;;;;;;;22.10;63.90;95459.63;5010267;28;20202;-74
2021/08/30 10:00:18;;;;;;;1999.90;999.90;;;;;;;21.73;61.22;95456.25;5009544;28;20185;-73
2021/08/30 10:02:49;;;;;;;1999.90;999.90;;;;;;;21.92;64.36;95452.66;5010198;28;20225;-74
2021/08/30 10:05:18;;;;;;;1999.90;999.90;;;;;;;22.37;63.64;95443.50;5010153;28;21007;-75
2021/08/30 10:07:45;;;;;;;1999.90;999.90;;;;;;;22.45;60.76;95453.03;5010172;28;20687;-74
2021/08/30 10:10:12;;;;;;;1999.90;999.90;;;;;;;22.43;58.46;95452.63;5009541;28;20230;-73
2021/08/30 10:12:42;;;;;;;1999.90;999.90;;;;;;;22.20;61.33;95452.88;5010068;28;20194;-73
2021/08/30 10:15:11;;;;;;;1999.90;999.90;;;;;;;22.40;61.13;95448.06;5009990;28;20268;-72
2021/08/30 10:17:44;;;;;;;1999.90;999.90;;;;;;;22.59;61.49;95450.44;5009839;28;20293;-74
2021/08/30 10:20:17;;;;;;;1999.90;999.90;;;;;;;22.65;60.03;95446.31;5010252;28;20268;-73
2021/08/30 10:22:56;;;;;;;1999.90;999.90;;;;;;;22.33;61.32;95446.91;5009896;28;20190;-73
2021/08/30 10:25:24;;;;;;;1999.90;999.90;;;;;;;22.77;61.82;95440.72;5010139;28;20182;-75
2021/08/30 10:27:58;;;;;;;1999.90;999.90;;;;;;;22.95;60.37;95441.56;5009954;28;20293;-74
2021/08/30 10:30:25;;;;;;;1999.90;999.90;;;;;;;22.91;60.45;95443.44;5010067;28;20187;-74
2021/08/30 10:32:57;;;;;;;1999.90;999.90;;;;;;;23.20;56.98;95438.22;5010166;28;20206;-73
2021/08/30 10:35:27;;;;;;;1999.90;999.90;;;;;;;23.00;56.52;95454.44;5009917;28;20229;-75
2021/08/30 10:37:59;;;;;;;1999.90;999.90;;;;;;;22.97;55.98;95441.94;5009839;28;20698;-74
2021/08/30 10:40:28;;;;;;;1999.90;999.90;;;;;;;23.12;55.37;95434.78;5009574;28;20194;-74
2021/08/30 10:43:04;;;;;;;1999.90;999.90;;;;;;;23.35;56.83;95443.19;5010012;28;20204;-74
2021/08/30 10:45:33;;;;;;;1999.90;999.90;;;;;;;23.19;57.03;95442.75;5010003;28;20191;-73
2021/08/30 10:48:01;;;;;;;1999.90;999.90;;;;;;;23.05;53.87;95442.72;5010120;28;20199;-74
2021/08/30 10:50:29;;;;;;;1999.90;999.90;;;;;;;23.08;56.89;95444.63;5009810;28;20202;-74
2021/08/30 10:53:06;;;;;;;1999.90;999.90;;;;;;;23.12;54.61;95432.88;5009592;28;20260;-73
2021/08/30 10:55:40;;;;;;;1999.90;999.90;;;;;;;23.06;53.77;95444.25;5009797;28;20206;-73
2021/08/30 10:58:27;;;;;;;1999.90;999.90;;;;;;;23.13;53.42;95445.00;5010157;28;20194;-73
2021/08/30 11:00:56;;;;;;;1999.90;999.90;;;;;;;23.29;52.53;95438.63;5009665;28;20241;-74